sensor_id;sensor_type;location;lat;lon;timestamp;pressure;altitude;pressure_sealevel;temperature;humidity
29239;BME280;16267;48.194;11.546;2023-04-30T00:00:22;96143.41;;;13.06;74.67
29239;BME280;16267;48.194;11.546;2023-04-30T00:02:47;96150.00;;;13.05;74.63
29239;BME280;16267;48.194;11.546;2023-04-30T00:05:13;96143.81;;;13.05;74.94
29239;BME280;16267;48.194;11.546;2023-04-30T00:07:39;96145.00;;;13.04;74.56
29239;BME280;16267;48.194;11.546;2023-04-30T00:10:09;96146.19;;;13.03;74.83
29239;BME280;16267;48.194;11.546;2023-04-30T00:12:35;96151.97;;;13.01;74.67
29239;BME280;16267;48.194;11.546;2023-04-30T00:15:02;96153.16;;;13.00;74.68
29239;BME280;16267;48.194;11.546;2023-04-30T00:17:28;96150.84;;;12.99;74.75
29239;BME280;16267;48.194;11.546;2023-04-30T00:19:54;96151.28;;;12.97;74.79
29239;BME280;16267;48.194;11.546;2023-04-30T00:22:20;96153.19;;;12.97;74.74
29239;BME280;16267;48.194;11.546;2023-04-30T00:24:46;96144.34;;;12.96;75.03
29239;BME280;16267;48.194;11.546;2023-04-30T00:27:12;96143.59;;;12.95;74.77
29239;BME280;16267;48.194;11.546;2023-04-30T00:29:37;96147.88;;;12.93;74.92
29239;BME280;16267;48.194;11.546;2023-04-30T00:32:03;96149.81;;;12.92;74.89
29239;BME280;16267;48.194;11.546;2023-04-30T00:34:29;96150.22;;;12.91;75.00
29239;BME280;16267;48.194;11.546;2023-04-30T00:36:55;96152.16;;;12.90;75.23
29239;BME280;16267;48.194;11.546;2023-04-30T00:39:21;96154.84;;;12.90;75.29
29239;BME280;16267;48.194;11.546;2023-04-30T00:41:46;96151.78;;;12.88;75.68
29239;BME280;16267;48.194;11.546;2023-04-30T00:44:12;96152.22;;;12.87;75.51
29239;BME280;16267;48.194;11.546;2023-04-30T00:46:38;96151.47;;;12.86;75.81
29239;BME280;16267;48.194;11.546;2023-04-30T00:49:03;96153.41;;;12.86;75.75
29239;BME280;16267;48.194;11.546;2023-04-30T00:51:31;96153.03;;;12.84;75.96
29239;BME280;16267;48.194;11.546;2023-04-30T00:54:00;96153.88;;;12.81;76.02
29239;BME280;16267;48.194;11.546;2023-04-30T00:56:28;96151.56;;;12.79;75.98
29239;BME280;16267;48.194;11.546;2023-04-30T00:58:57;96159.28;;;12.77;75.77
29239;BME280;16267;48.194;11.546;2023-04-30T01:01:27;96157.78;;;12.76;75.80
29239;BME280;16267;48.194;11.546;2023-04-30T01:03:56;96163.56;;;12.75;75.72
29239;BME280;16267;48.194;11.546;2023-04-30T01:06:22;96162.06;;;12.73;76.04
29239;BME280;16267;48.194;11.546;2023-04-30T01:08:49;96168.63;;;12.72;76.19
29239;BME280;16267;48.194;11.546;2023-04-30T01:11:51;96173.66;;;12.70;76.34
29239;BME280;16267;48.194;11.546;2023-04-30T01:17:26;96170.59;;;12.68;76.36
29239;BME280;16267;48.194;11.546;2023-04-30T01:19:54;96169.84;;;12.68;76.34
29239;BME280;16267;48.194;11.546;2023-04-30T01:22:34;96180.25;;;12.66;76.85
29239;BME280;16267;48.194;11.546;2023-04-30T01:25:33;96184.50;;;12.63;76.84
29239;BME280;16267;48.194;11.546;2023-04-30T01:28:14;96179.13;;;12.63;76.52
29239;BME280;16267;48.194;11.546;2023-04-30T01:30:42;96183.75;;;12.63;76.45
29239;BME280;16267;48.194;11.546;2023-04-30T01:33:12;96180.69;;;12.61;76.88
29239;BME280;16267;48.194;11.546;2023-04-30T01:41:39;96178.81;;;12.58;76.89
29239;BME280;16267;48.194;11.546;2023-04-30T01:52:50;96186.22;;;12.54;76.84
29239;BME280;16267;48.194;11.546;2023-04-30T01:55:42;96183.91;;;12.52;76.73
29239;BME280;16267;48.194;11.546;2023-04-30T01:58:14;96184.34;;;12.50;77.02
29239;BME280;16267;48.194;11.546;2023-04-30T02:00:41;96182.78;;;12.49;76.83
29239;BME280;16267;48.194;11.546;2023-04-30T02:03:07;96186.66;;;12.48;77.00
29239;BME280;16267;48.194;11.546;2023-04-30T02:05:33;96181.28;;;12.48;76.93
29239;BME280;16267;48.194;11.546;2023-04-30T02:07:59;96178.22;;;12.46;76.80
29239;BME280;16267;48.194;11.546;2023-04-30T02:10:26;96189.00;;;12.46;76.82
29239;BME280;16267;48.194;11.546;2023-04-30T02:12:53;96189.00;;;12.46;76.97
29239;BME280;16267;48.194;11.546;2023-04-30T02:15:19;96188.66;;;12.44;77.03
29239;BME280;16267;48.194;11.546;2023-04-30T02:17:45;96197.88;;;12.43;77.02
29239;BME280;16267;48.194;11.546;2023-04-30T02:20:11;96189.81;;;12.43;77.28
29239;BME280;16267;48.194;11.546;2023-04-30T02:22:37;96188.31;;;12.42;77.09
29239;BME280;16267;48.194;11.546;2023-04-30T02:25:03;96191.38;;;12.41;76.76
29239;BME280;16267;48.194;11.546;2023-04-30T02:27:31;96190.25;;;12.38;76.66
29239;BME280;16267;48.194;11.546;2023-04-30T02:29:58;96195.31;;;12.36;76.99
29239;BME280;16267;48.194;11.546;2023-04-30T02:32:24;96199.91;;;12.36;77.13
29239;BME280;16267;48.194;11.546;2023-04-30T02:34:50;96199.56;;;12.34;77.06
29239;BME280;16267;48.194;11.546;2023-04-30T02:37:16;96198.78;;;12.33;77.26
29239;BME280;16267;48.194;11.546;2023-04-30T02:39:42;96194.59;;;12.32;77.09
29239;BME280;16267;48.194;11.546;2023-04-30T02:42:08;96200.78;;;12.29;77.37
29239;BME280;16267;48.194;11.546;2023-04-30T02:44:34;96206.16;;;12.29;77.32
29239;BME280;16267;48.194;11.546;2023-04-30T02:47:00;96201.97;;;12.28;77.52
29239;BME280;16267;48.194;11.546;2023-04-30T02:49:27;96200.41;;;12.27;77.61
29239;BME280;16267;48.194;11.546;2023-04-30T02:51:54;96205.03;;;12.26;77.35
29239;BME280;16267;48.194;11.546;2023-04-30T02:54:20;96210.84;;;12.25;77.62
29239;BME280;16267;48.194;11.546;2023-04-30T02:56:46;96210.84;;;12.25;77.67
29239;BME280;16267;48.194;11.546;2023-04-30T02:59:12;96208.56;;;12.23;77.94
29239;BME280;16267;48.194;11.546;2023-04-30T03:01:38;96202.41;;;12.23;77.70
29239;BME280;16267;48.194;11.546;2023-04-30T03:04:04;96197.41;;;12.21;77.51
29239;BME280;16267;48.194;11.546;2023-04-30T03:06:31;96199.78;;;12.19;77.65
29239;BME280;16267;48.194;11.546;2023-04-30T03:08:57;96199.78;;;12.19;77.57
29239;BME280;16267;48.194;11.546;2023-04-30T03:11:23;96197.47;;;12.18;77.71
29239;BME280;16267;48.194;11.546;2023-04-30T03:13:56;96201.34;;;12.17;77.42
29239;BME280;16267;48.194;11.546;2023-04-30T03:16:21;96198.69;;;12.13;77.64
29239;BME280;16267;48.194;11.546;2023-04-30T03:18:48;96199.84;;;12.12;77.45
29239;BME280;16267;48.194;11.546;2023-04-30T03:21:14;96192.19;;;12.11;77.62
29239;BME280;16267;48.194;11.546;2023-04-30T03:23:40;96195.28;;;12.09;77.49
29239;BME280;16267;48.194;11.546;2023-04-30T03:26:06;96191.47;;;12.07;77.40
29239;BME280;16267;48.194;11.546;2023-04-30T03:28:33;96190.34;;;12.04;77.81
29239;BME280;16267;48.194;11.546;2023-04-30T03:31:00;96187.28;;;12.02;77.59
29239;BME280;16267;48.194;11.546;2023-04-30T03:33:30;96186.16;;;11.99;77.82
29239;BME280;16267;48.194;11.546;2023-04-30T03:35:56;96192.38;;;11.96;77.61
29239;BME280;16267;48.194;11.546;2023-04-30T03:38:22;96180.09;;;11.95;78.10
29239;BME280;16267;48.194;11.546;2023-04-30T03:40:48;96185.88;;;11.94;78.09
29239;BME280;16267;48.194;11.546;2023-04-30T03:43:14;96192.41;;;11.93;78.13
29239;BME280;16267;48.194;11.546;2023-04-30T03:45:40;96185.53;;;11.92;77.89
29239;BME280;16267;48.194;11.546;2023-04-30T03:48:05;96195.91;;;11.90;78.64
29239;BME280;16267;48.194;11.546;2023-04-30T03:50:31;96187.47;;;11.88;78.39
29239;BME280;16267;48.194;11.546;2023-04-30T03:52:59;96194.44;;;11.81;78.36
29239;BME280;16267;48.194;11.546;2023-04-30T03:55:25;96191.34;;;11.83;78.63
29239;BME280;16267;48.194;11.546;2023-04-30T03:57:51;96179.47;;;11.80;78.73
29239;BME280;16267;48.194;11.546;2023-04-30T04:00:17;96173.31;;;11.80;79.08
29239;BME280;16267;48.194;11.546;2023-04-30T04:02:43;96174.50;;;11.79;78.77
29239;BME280;16267;48.194;11.546;2023-04-30T04:05:09;96175.69;;;11.78;78.85
29239;BME280;16267;48.194;11.546;2023-04-30T04:07:35;96172.97;;;11.78;78.59
29239;BME280;16267;48.194;11.546;2023-04-30T04:10:01;96178.38;;;11.78;78.82
29239;BME280;16267;48.194;11.546;2023-04-30T04:12:27;96180.25;;;11.77;78.38
29239;BME280;16267;48.194;11.546;2023-04-30T04:14:53;96179.94;;;11.75;78.41
29239;BME280;16267;48.194;11.546;2023-04-30T04:17:18;96175.31;;;11.76;78.43
29239;BME280;16267;48.194;11.546;2023-04-30T04:19:44;96177.63;;;11.74;78.13
29239;BME280;16267;48.194;11.546;2023-04-30T04:22:10;96185.69;;;11.74;78.22
29239;BME280;16267;48.194;11.546;2023-04-30T04:24:35;96190.31;;;11.73;78.24
29239;BME280;16267;48.194;11.546;2023-04-30T04:27:02;96189.56;;;11.73;78.29
29239;BME280;16267;48.194;11.546;2023-04-30T04:29:28;96193.00;;;11.73;78.47
29239;BME280;16267;48.194;11.546;2023-04-30T04:31:54;96195.31;;;11.71;77.98
29239;BME280;16267;48.194;11.546;2023-04-30T04:34:21;96199.56;;;11.69;78.28
29239;BME280;16267;48.194;11.546;2023-04-30T04:36:47;96203.81;;;11.66;78.09
29239;BME280;16267;48.194;11.546;2023-04-30T04:39:13;96208.88;;;11.64;78.57
29239;BME280;16267;48.194;11.546;2023-04-30T04:41:39;96212.69;;;11.63;79.04
29239;BME280;16267;48.194;11.546;2023-04-30T04:44:05;96221.53;;;11.64;79.13
29239;BME280;16267;48.194;11.546;2023-04-30T04:46:33;96221.13;;;11.65;79.08
29239;BME280;16267;48.194;11.546;2023-04-30T04:48:59;96221.88;;;11.66;79.05
29239;BME280;16267;48.194;11.546;2023-04-30T04:51:25;96210.00;;;11.67;79.08
29239;BME280;16267;48.194;11.546;2023-04-30T04:53:51;96213.44;;;11.67;78.95
29239;BME280;16267;48.194;11.546;2023-04-30T04:56:17;96216.88;;;11.68;79.04
29239;BME280;16267;48.194;11.546;2023-04-30T04:58:44;96220.31;;;11.68;78.77
29239;BME280;16267;48.194;11.546;2023-04-30T05:01:10;96224.56;;;11.66;78.45
29239;BME280;16267;48.194;11.546;2023-04-30T05:03:35;96221.13;;;11.65;78.84
29239;BME280;16267;48.194;11.546;2023-04-30T05:06:02;96222.66;;;11.66;78.75
29239;BME280;16267;48.194;11.546;2023-04-30T05:08:28;96224.56;;;11.66;78.49
29239;BME280;16267;48.194;11.546;2023-04-30T05:10:54;96223.81;;;11.65;79.09
29239;BME280;16267;48.194;11.546;2023-04-30T05:13:20;96229.56;;;11.67;78.68
29239;BME280;16267;48.194;11.546;2023-04-30T05:15:48;96226.88;;;11.67;78.66
29239;BME280;16267;48.194;11.546;2023-04-30T05:18:13;96227.63;;;11.68;78.96
29239;BME280;16267;48.194;11.546;2023-04-30T05:20:39;96224.94;;;11.68;78.52
29239;BME280;16267;48.194;11.546;2023-04-30T05:23:05;96230.72;;;11.66;78.23
29239;BME280;16267;48.194;11.546;2023-04-30T05:25:31;96232.66;;;11.66;78.45
29239;BME280;16267;48.194;11.546;2023-04-30T05:27:56;96229.19;;;11.65;78.13
29239;BME280;16267;48.194;11.546;2023-04-30T05:30:23;96236.50;;;11.65;78.55
29239;BME280;16267;48.194;11.546;2023-04-30T05:32:48;96234.63;;;11.58;77.84
29239;BME280;16267;48.194;11.546;2023-04-30T05:35:17;96235.00;;;11.60;78.85
29239;BME280;16267;48.194;11.546;2023-04-30T05:37:43;96233.97;;;11.50;78.88
29239;BME280;16267;48.194;11.546;2023-04-30T05:40:10;96239.31;;;11.54;79.60
29239;BME280;16267;48.194;11.546;2023-04-30T05:42:36;96244.25;;;11.55;79.19
29239;BME280;16267;48.194;11.546;2023-04-30T05:45:03;96244.63;;;11.57;78.95
29239;BME280;16267;48.194;11.546;2023-04-30T05:47:29;96236.97;;;11.56;79.11
29239;BME280;16267;48.194;11.546;2023-04-30T05:49:55;96236.94;;;11.59;79.08
29239;BME280;16267;48.194;11.546;2023-04-30T05:52:22;96235.75;;;11.60;78.94
29239;BME280;16267;48.194;11.546;2023-04-30T05:54:48;96241.50;;;11.63;79.09
29239;BME280;16267;48.194;11.546;2023-04-30T05:57:13;96239.94;;;11.65;79.08
29239;BME280;16267;48.194;11.546;2023-04-30T05:59:39;96239.16;;;11.68;79.11
29239;BME280;16267;48.194;11.546;2023-04-30T06:02:06;96242.25;;;11.67;78.25
29239;BME280;16267;48.194;11.546;2023-04-30T06:04:31;96237.25;;;11.65;78.25
29239;BME280;16267;48.194;11.546;2023-04-30T06:06:57;96237.69;;;11.60;78.67
29239;BME280;16267;48.194;11.546;2023-04-30T06:09:23;96228.41;;;11.68;78.73
29239;BME280;16267;48.194;11.546;2023-04-30T06:11:49;96229.91;;;11.73;77.60
29239;BME280;16267;48.194;11.546;2023-04-30T06:14:17;96227.09;;;11.80;78.38
29239;BME280;16267;48.194;11.546;2023-04-30T06:16:44;96224.38;;;11.87;78.23
29239;BME280;16267;48.194;11.546;2023-04-30T06:19:10;96229.66;;;11.94;78.60
29239;BME280;16267;48.194;11.546;2023-04-30T06:21:38;96228.09;;;11.97;77.48
29239;BME280;16267;48.194;11.546;2023-04-30T06:24:05;96228.38;;;12.06;78.12
29239;BME280;16267;48.194;11.546;2023-04-30T06:26:31;96227.13;;;12.14;77.64
29239;BME280;16267;48.194;11.546;2023-04-30T06:28:57;96226.25;;;12.21;77.35
29239;BME280;16267;48.194;11.546;2023-04-30T06:31:23;96232.31;;;12.28;76.89
29239;BME280;16267;48.194;11.546;2023-04-30T06:33:48;96226.06;;;12.35;76.62
29239;BME280;16267;48.194;11.546;2023-04-30T06:36:15;96229.97;;;12.58;76.16
29239;BME280;16267;48.194;11.546;2023-04-30T06:38:41;96226.75;;;12.70;75.85
29239;BME280;16267;48.194;11.546;2023-04-30T06:41:07;96223.25;;;12.73;75.09
29239;BME280;16267;48.194;11.546;2023-04-30T06:43:33;96227.03;;;12.76;74.79
29239;BME280;16267;48.194;11.546;2023-04-30T06:46:01;96226.97;;;12.79;73.36
29239;BME280;16267;48.194;11.546;2023-04-30T06:48:28;96223.84;;;12.84;74.12
29239;BME280;16267;48.194;11.546;2023-04-30T06:50:54;96226.38;;;12.95;73.21
29239;BME280;16267;48.194;11.546;2023-04-30T06:53:20;96226.13;;;13.09;72.09
29239;BME280;16267;48.194;11.546;2023-04-30T06:55:47;96228.66;;;13.20;71.75
29239;BME280;16267;48.194;11.546;2023-04-30T06:58:13;96221.16;;;13.31;69.56
29239;BME280;16267;48.194;11.546;2023-04-30T07:00:39;96224.44;;;13.43;70.54
29239;BME280;16267;48.194;11.546;2023-04-30T07:03:05;96228.19;;;13.49;70.28
29239;BME280;16267;48.194;11.546;2023-04-30T07:05:31;96224.19;;;13.57;68.53
29239;BME280;16267;48.194;11.546;2023-04-30T07:08:00;96221.75;;;13.43;68.57
29239;BME280;16267;48.194;11.546;2023-04-30T07:10:26;96219.91;;;13.59;69.20
29239;BME280;16267;48.194;11.546;2023-04-30T07:12:52;96214.22;;;13.74;69.18
29239;BME280;16267;48.194;11.546;2023-04-30T07:15:18;96223.44;;;13.76;68.41
29239;BME280;16267;48.194;11.546;2023-04-30T07:17:44;96218.25;;;13.86;68.41
29239;BME280;16267;48.194;11.546;2023-04-30T07:20:11;96213.47;;;13.93;67.62
29239;BME280;16267;48.194;11.546;2023-04-30T07:22:42;96218.72;;;14.00;68.36
29239;BME280;16267;48.194;11.546;2023-04-30T07:25:12;96218.50;;;14.11;67.78
29239;BME280;16267;48.194;11.546;2023-04-30T07:27:38;96209.50;;;14.18;67.00
29239;BME280;16267;48.194;11.546;2023-04-30T07:30:06;96211.22;;;14.28;66.40
29239;BME280;16267;48.194;11.546;2023-04-30T07:32:34;96214.44;;;14.39;67.00
29239;BME280;16267;48.194;11.546;2023-04-30T07:35:00;96218.03;;;14.53;65.88
29239;BME280;16267;48.194;11.546;2023-04-30T07:37:26;96216.19;;;14.66;65.19
29239;BME280;16267;48.194;11.546;2023-04-30T07:39:52;96217.13;;;14.76;64.99
29239;BME280;16267;48.194;11.546;2023-04-30T07:42:18;96206.75;;;14.90;64.16
29239;BME280;16267;48.194;11.546;2023-04-30T07:44:43;96205.81;;;14.97;63.51
29239;BME280;16267;48.194;11.546;2023-04-30T07:47:09;96206.50;;;14.85;63.09
29239;BME280;16267;48.194;11.546;2023-04-30T07:49:35;96207.94;;;14.89;64.22
29239;BME280;16267;48.194;11.546;2023-04-30T07:52:01;96211.47;;;15.03;63.93
29239;BME280;16267;48.194;11.546;2023-04-30T07:54:27;96200.06;;;15.11;63.42
29239;BME280;16267;48.194;11.546;2023-04-30T07:56:52;96199.31;;;15.11;64.23
29239;BME280;16267;48.194;11.546;2023-04-30T07:59:18;96196.34;;;15.22;63.67
29239;BME280;16267;48.194;11.546;2023-04-30T08:01:46;96206.03;;;15.35;63.44
29239;BME280;16267;48.194;11.546;2023-04-30T08:04:12;96197.56;;;15.50;61.87
29239;BME280;16267;48.194;11.546;2023-04-30T08:06:38;96202.13;;;15.66;62.41
29239;BME280;16267;48.194;11.546;2023-04-30T08:09:03;96209.59;;;15.78;62.53
29239;BME280;16267;48.194;11.546;2023-04-30T08:11:29;96206.66;;;15.85;61.15
29239;BME280;16267;48.194;11.546;2023-04-30T08:13:55;96203.94;;;15.85;60.56
29239;BME280;16267;48.194;11.546;2023-04-30T08:16:20;96207.56;;;15.95;60.78
29239;BME280;16267;48.194;11.546;2023-04-30T08:18:46;96200.56;;;16.10;60.80
29239;BME280;16267;48.194;11.546;2023-04-30T08:21:14;96200.66;;;16.06;59.59
29239;BME280;16267;48.194;11.546;2023-04-30T08:23:40;96204.22;;;16.03;60.77
29239;BME280;16267;48.194;11.546;2023-04-30T08:26:06;96205.53;;;16.12;59.72
29239;BME280;16267;48.194;11.546;2023-04-30T08:28:32;96202.53;;;16.22;59.31
29239;BME280;16267;48.194;11.546;2023-04-30T08:30:57;96199.06;;;16.22;59.17
29239;BME280;16267;48.194;11.546;2023-04-30T08:33:23;96207.59;;;16.08;57.55
29239;BME280;16267;48.194;11.546;2023-04-30T08:35:49;96206.00;;;16.10;58.11
29239;BME280;16267;48.194;11.546;2023-04-30T08:38:15;96210.19;;;16.11;57.51
29239;BME280;16267;48.194;11.546;2023-04-30T08:40:54;96209.00;;;16.12;57.22
29239;BME280;16267;48.194;11.546;2023-04-30T08:43:21;96207.75;;;16.30;56.95
29239;BME280;16267;48.194;11.546;2023-04-30T08:45:49;96198.09;;;16.28;55.60
29239;BME280;16267;48.194;11.546;2023-04-30T08:48:18;96203.06;;;16.17;55.04
29239;BME280;16267;48.194;11.546;2023-04-30T08:50:43;96204.16;;;16.45;56.00
29239;BME280;16267;48.194;11.546;2023-04-30T08:53:11;96199.63;;;16.42;55.55
29239;BME280;16267;48.194;11.546;2023-04-30T08:55:39;96198.75;;;16.58;55.61
29239;BME280;16267;48.194;11.546;2023-04-30T08:58:07;96206.69;;;16.78;56.77
29239;BME280;16267;48.194;11.546;2023-04-30T09:00:37;96204.06;;;17.00;56.36
29239;BME280;16267;48.194;11.546;2023-04-30T09:03:07;96209.06;;;17.02;55.44
29239;BME280;16267;48.194;11.546;2023-04-30T09:05:33;96211.50;;;17.09;53.47
29239;BME280;16267;48.194;11.546;2023-04-30T09:07:58;96219.31;;;17.20;53.36
29239;BME280;16267;48.194;11.546;2023-04-30T09:10:24;96209.31;;;17.29;53.18
29239;BME280;16267;48.194;11.546;2023-04-30T09:13:09;96220.50;;;17.19;51.89
29239;BME280;16267;48.194;11.546;2023-04-30T09:15:38;96209.09;;;17.24;51.88
29239;BME280;16267;48.194;11.546;2023-04-30T09:18:16;96214.16;;;17.34;52.61
29239;BME280;16267;48.194;11.546;2023-04-30T09:20:56;96207.50;;;17.48;52.50
29239;BME280;16267;48.194;11.546;2023-04-30T09:23:22;96219.34;;;17.42;51.76
29239;BME280;16267;48.194;11.546;2023-04-30T09:25:49;96214.63;;;17.20;51.76
29239;BME280;16267;48.194;11.546;2023-04-30T09:28:14;96216.72;;;17.16;52.83
29239;BME280;16267;48.194;11.546;2023-04-30T09:30:41;96207.03;;;17.15;52.77
29239;BME280;16267;48.194;11.546;2023-04-30T09:33:08;96214.22;;;17.09;53.73
29239;BME280;16267;48.194;11.546;2023-04-30T09:35:36;96210.78;;;16.95;52.52
29239;BME280;16267;48.194;11.546;2023-04-30T09:38:06;96203.53;;;16.80;52.19
29239;BME280;16267;48.194;11.546;2023-04-30T09:40:40;96204.59;;;16.95;53.11
29239;BME280;16267;48.194;11.546;2023-04-30T09:43:07;96210.47;;;16.81;52.78
29239;BME280;16267;48.194;11.546;2023-04-30T09:45:44;96218.41;;;16.88;53.17
29239;BME280;16267;48.194;11.546;2023-04-30T09:48:20;96217.28;;;16.72;52.66
29239;BME280;16267;48.194;11.546;2023-04-30T09:50:47;96204.41;;;16.77;53.57
29239;BME280;16267;48.194;11.546;2023-04-30T09:53:14;96203.09;;;16.68;52.44
29239;BME280;16267;48.194;11.546;2023-04-30T09:55:44;96207.44;;;16.66;53.48
29239;BME280;16267;48.194;11.546;2023-04-30T09:58:11;96212.41;;;16.67;53.92
29239;BME280;16267;48.194;11.546;2023-04-30T10:00:38;96213.06;;;16.59;52.85
29239;BME280;16267;48.194;11.546;2023-04-30T10:03:12;96211.31;;;16.65;53.00
29239;BME280;16267;48.194;11.546;2023-04-30T10:05:45;96201.22;;;16.65;53.71
29239;BME280;16267;48.194;11.546;2023-04-30T10:08:39;96209.06;;;16.63;53.34
29239;BME280;16267;48.194;11.546;2023-04-30T10:11:07;96209.34;;;16.65;53.29
29239;BME280;16267;48.194;11.546;2023-04-30T10:13:46;96203.41;;;16.45;53.51
29239;BME280;16267;48.194;11.546;2023-04-30T10:18:53;96203.00;;;16.46;53.27
29239;BME280;16267;48.194;11.546;2023-04-30T10:21:22;96210.25;;;16.49;53.26
29239;BME280;16267;48.194;11.546;2023-04-30T10:23:50;96199.63;;;16.55;53.21
29239;BME280;16267;48.194;11.546;2023-04-30T10:26:16;96197.34;;;16.54;53.08
29239;BME280;16267;48.194;11.546;2023-04-30T10:28:43;96205.59;;;16.50;52.84
29239;BME280;16267;48.194;11.546;2023-04-30T10:31:11;96193.13;;;16.53;52.00
29239;BME280;16267;48.194;11.546;2023-04-30T10:34:14;96193.88;;;16.53;50.18
29239;BME280;16267;48.194;11.546;2023-04-30T10:36:47;96195.81;;;16.65;51.94
29239;BME280;16267;48.194;11.546;2023-04-30T10:39:17;96188.56;;;16.62;51.46
29239;BME280;16267;48.194;11.546;2023-04-30T10:41:45;96194.19;;;16.68;51.11
29239;BME280;16267;48.194;11.546;2023-04-30T10:44:33;96180.78;;;16.77;51.26
29239;BME280;16267;48.194;11.546;2023-04-30T10:47:04;96176.09;;;16.90;51.59
29239;BME280;16267;48.194;11.546;2023-04-30T10:49:31;96171.09;;;16.89;50.13
29239;BME280;16267;48.194;11.546;2023-04-30T10:52:02;96174.47;;;16.80;50.24
29239;BME280;16267;48.194;11.546;2023-04-30T10:54:32;96177.72;;;16.88;50.06
29239;BME280;16267;48.194;11.546;2023-04-30T10:59:42;96166.09;;;16.87;50.46
29239;BME280;16267;48.194;11.546;2023-04-30T11:02:10;96172.31;;;16.88;50.40
29239;BME280;16267;48.194;11.546;2023-04-30T11:05:15;96166.00;;;16.91;50.87
29239;BME280;16267;48.194;11.546;2023-04-30T11:07:51;96163.09;;;16.85;50.06
29239;BME280;16267;48.194;11.546;2023-04-30T11:10:24;96158.44;;;16.86;50.12
29239;BME280;16267;48.194;11.546;2023-04-30T11:12:53;96163.31;;;16.91;50.40
29239;BME280;16267;48.194;11.546;2023-04-30T11:15:24;96157.00;;;16.94;49.58
29239;BME280;16267;48.194;11.546;2023-04-30T11:17:50;96156.31;;;17.03;48.44
29239;BME280;16267;48.194;11.546;2023-04-30T11:20:23;96150.56;;;17.01;48.93
29239;BME280;16267;48.194;11.546;2023-04-30T11:25:45;96145.44;;;17.37;49.10
29239;BME280;16267;48.194;11.546;2023-04-30T11:28:23;96144.53;;;17.53;47.67
29239;BME280;16267;48.194;11.546;2023-04-30T11:30:59;96147.19;;;17.66;47.32
29239;BME280;16267;48.194;11.546;2023-04-30T11:33:28;96138.34;;;17.75;45.93
29239;BME280;16267;48.194;11.546;2023-04-30T11:35:56;96136.75;;;17.87;46.73
29239;BME280;16267;48.194;11.546;2023-04-30T11:38:34;96134.97;;;17.93;44.94
29239;BME280;16267;48.194;11.546;2023-04-30T11:41:02;96135.47;;;18.00;45.56
29239;BME280;16267;48.194;11.546;2023-04-30T11:43:33;96129.63;;;18.02;45.51
29239;BME280;16267;48.194;11.546;2023-04-30T11:46:08;96126.72;;;17.96;45.88
29239;BME280;16267;48.194;11.546;2023-04-30T11:48:37;96129.75;;;17.76;46.29
29239;BME280;16267;48.194;11.546;2023-04-30T11:51:15;96130.63;;;17.73;47.03
29239;BME280;16267;48.194;11.546;2023-04-30T11:53:41;96129.75;;;17.76;48.07
29239;BME280;16267;48.194;11.546;2023-04-30T11:56:08;96133.22;;;17.77;47.24
29239;BME280;16267;48.194;11.546;2023-04-30T11:58:37;96133.66;;;17.75;46.99
29239;BME280;16267;48.194;11.546;2023-04-30T12:01:06;96133.44;;;17.82;47.36
29239;BME280;16267;48.194;11.546;2023-04-30T12:03:46;96129.28;;;17.78;46.97
29239;BME280;16267;48.194;11.546;2023-04-30T12:06:32;96127.53;;;17.84;47.08
29239;BME280;16267;48.194;11.546;2023-04-30T12:09:01;96129.84;;;17.86;46.79
29239;BME280;16267;48.194;11.546;2023-04-30T12:11:34;96132.25;;;17.71;46.09
29239;BME280;16267;48.194;11.546;2023-04-30T12:14:05;96132.06;;;17.65;46.92
29239;BME280;16267;48.194;11.546;2023-04-30T12:16:47;96124.56;;;17.69;46.56
29239;BME280;16267;48.194;11.546;2023-04-30T12:19:18;96130.38;;;17.58;46.70
29239;BME280;16267;48.194;11.546;2023-04-30T12:21:46;96121.81;;;17.60;46.76
29239;BME280;16267;48.194;11.546;2023-04-30T12:24:14;96124.34;;;17.54;46.75
29239;BME280;16267;48.194;11.546;2023-04-30T12:26:41;96123.00;;;17.59;47.67
29239;BME280;16267;48.194;11.546;2023-04-30T12:29:13;96125.72;;;17.59;47.25
29239;BME280;16267;48.194;11.546;2023-04-30T12:31:39;96119.41;;;17.62;47.89
29239;BME280;16267;48.194;11.546;2023-04-30T12:34:08;96121.88;;;17.69;48.49
29239;BME280;16267;48.194;11.546;2023-04-30T12:36:35;96117.66;;;17.68;46.26
29239;BME280;16267;48.194;11.546;2023-04-30T12:39:11;96115.34;;;17.67;46.47
29239;BME280;16267;48.194;11.546;2023-04-30T12:41:43;96123.81;;;17.69;46.95
29239;BME280;16267;48.194;11.546;2023-04-30T12:44:25;96120.66;;;17.70;47.34
29239;BME280;16267;48.194;11.546;2023-04-30T12:46:54;96118.56;;;17.74;47.47
29239;BME280;16267;48.194;11.546;2023-04-30T12:49:29;96118.81;;;17.67;46.92
29239;BME280;16267;48.194;11.546;2023-04-30T12:52:01;96106.97;;;17.74;47.23
29239;BME280;16267;48.194;11.546;2023-04-30T12:54:30;96119.22;;;17.78;47.85
29239;BME280;16267;48.194;11.546;2023-04-30T12:57:04;96105.66;;;17.78;46.30
29239;BME280;16267;48.194;11.546;2023-04-30T12:59:39;96107.47;;;17.81;46.13
29239;BME280;16267;48.194;11.546;2023-04-30T13:02:16;96112.00;;;17.84;46.43
29239;BME280;16267;48.194;11.546;2023-04-30T13:04:43;96099.44;;;17.78;46.83
29239;BME280;16267;48.194;11.546;2023-04-30T13:07:10;96096.50;;;17.85;47.15
29239;BME280;16267;48.194;11.546;2023-04-30T13:09:37;96096.03;;;17.87;46.48
29239;BME280;16267;48.194;11.546;2023-04-30T13:12:03;96085.19;;;17.87;46.05
29239;BME280;16267;48.194;11.546;2023-04-30T13:14:31;96094.34;;;17.80;46.24
29239;BME280;16267;48.194;11.546;2023-04-30T13:16:57;96084.69;;;17.57;46.52
29239;BME280;16267;48.194;11.546;2023-04-30T13:19:23;96082.63;;;17.61;47.33
29239;BME280;16267;48.194;11.546;2023-04-30T13:21:49;96073.91;;;17.66;46.60